Aérodrome :
LOGIN :

S'inscrire | Disclaimer

   EN    FR    IT 

 










Légende :    VFR   VFR Marginal   IFR   IFR Intensif   IFR Très Intensif
Visi : 
Plafond : 
>= 8 km
>= 3000ft
5 à 8 km
1000 à 3000 ft
1500m à 5 km
500 à 1000 ft
800 à 1500m
200 à 500 ft
< 800m
< 200 ft
Symboles :   Orages  Brouillard  Fortes neiges  Fortes précipitations  Vent > 20 kt
SIGMETs :   Divers  Orages  Givrage  Turbulence  Onde Orograph.  Cendres Volcan.






- Altitude de l'aérodrome : 465 ft


ENFB - Statfjord B Platform

DERNIER METAR :
  • 210320Z AUTO 24044G54KT 9999NDV SCT032/// BKN039/// BKN060/// 06/01 Q0987 W///S6

METARs EXPIRÉS :
  • 210250Z AUTO 23040KT 9999NDV BKN027/// 06/02 Q0987 W///S6
  • 210220Z AUTO 24036KT 9999NDV -SHRA BKN030/// 06/02 Q0987 W///S6
  • 210150Z AUTO 25035KT 9999NDV -SHRA BKN025/// BKN035/// 06/01 Q0987 W///S6
  • 210120Z AUTO 24041KT 9999NDV BKN031/// 07/01 Q0986 W///S6
  • 210050Z AUTO 24043KT 9999NDV SCT036/// SCT079/// BKN120/// 07/00 Q0985 W///S6

TAF N/A



MET'MAP, la Météo Aéronautique d'un coup d'oeil ! - Copyright ORBIFLY Décembre 2007 - Disclaimer

ORBIFLY MET'MAP TEAM :

Programmation & Développement : Alexandra Zaïnal
Sur une idée originale de : Baudouin d'Aumeries
Assistance à la programmation : Marc-Olivier Méhu
Soutien technique & logistique : Manuel Goepfert

Contact : metmap@orbifly.com




SOURCES & CREDITS :

   NOAA